Maritime Instructor — WCW8625 — position and weather

sailwx.info

Track history (hours):
 
Tides and Currents Weather Stations Pressure Air Temp Water Temp Dewpoint Dewpoint Depression Visibility Wind Speed Wind Dir Waves Ship Positions

Maritime Instructor

Owner: WASHINGTON, STATE OF, SEATTLE, WA. More information available from US FCC via Universal Licensing System and Coast Guard Vessel Documentation Center.

Last reported at 2015-Jan-31 03:46 UTC. Time now 2015-Jan-31 21:09 UTC.
Position N 47°40' W 122°23'.

Length 30 m; draft 2 m.

Type: Ship. MMSI: 303556000.

Date/timePositionNaut miles runAvg speedWind from/ knotsBaromVisibWave heightAir tempDewpointWater temp
2015-Jan-31 03:46N 47°40' W 122°23'0 0.0
2015-Jan-31 03:33N 47°40' W 122°23'0 0.0
2015-Jan-31 03:32N 47°40' W 122°23'1 0.6
2015-Jan-31 02:37N 47°40' W 122°23'0 5.9
2015-Jan-31 02:33N 47°40' W 122°24'5 5.3
2015-Jan-31 01:33N 47°35' W 122°26'612.2
2015-Jan-31 01:05N 47°30' W 122°30'712.4
2015-Jan-31 00:33N 47°23' W 122°32'3 3.2
2015-Jan-30 23:33N 47°21' W 122°29'1 0.7
2015-Jan-30 22:33N 47°21' W 122°29'1 1.2
2015-Jan-30 21:33N 47°20' W 122°28'10 9.6
2015-Jan-30 20:33N 47°30' W 122°24'312.4
2015-Jan-30 20:20N 47°32' W 122°25'810.7
2015-Jan-30 19:33N 47°41' W 122°25'0 6.6
2015-Jan-30 19:30N 47°40' W 122°24'2 1.6
2015-Jan-30 18:33N 47°40' W 122°23'0 0.0
2015-Jan-30 18:30N 47°40' W 122°23'  
2015-Jan-28 03:07N 47°40' W 122°23'0 0.1
2015-Jan-28 03:03N 47°40' W 122°23'0 0.0
2015-Jan-28 02:34N 47°40' W 122°23'0 0.0
2015-Jan-28 02:33N 47°40' W 122°23'5 4.8
2015-Jan-28 01:33N 47°44' W 122°24'011.2
2015-Jan-28 01:32N 47°44' W 122°24'1010.1
2015-Jan-28 00:33N 47°54' W 122°20'7 7.3
2015-Jan-27 23:33N 47°60' W 122°13'0 0.0
2015-Jan-27 22:33N 47°60' W 122°13'0 0.0
2015-Jan-27 21:33N 47°60' W 122°13'2 1.7
2015-Jan-27 20:33N 47°60' W 122°16'6 5.8
2015-Jan-27 19:32N 48°02' W 122°24'2 8.0
2015-Jan-27 19:16N 48°01' W 122°22'810.6
2015-Jan-27 18:33N 47°53' W 122°22'311.5
2015-Jan-27 18:16N 47°50' W 122°24'912.3
2015-Jan-27 17:33N 47°42' W 122°25'011.0
2015-Jan-27 17:31N 47°41' W 122°25'2 2.4
2015-Jan-27 16:33N 47°40' W 122°23'0 0.2
2015-Jan-27 16:31N 47°40' W 122°23'  
2015-Jan-24 02:29N 47°40' W 122°23'0 0.0
2015-Jan-24 02:29N 47°40' W 122°23'3 3.2
2015-Jan-24 01:33N 47°42' W 122°25'1 7.3
2015-Jan-24 01:29N 47°43' W 122°25'6 6.2
2015-Jan-24 00:33N 47°43' W 122°34'0 6.3
2015-Jan-24 00:33N 47°43' W 122°34'8 8.2
2015-Jan-23 23:34N 47°35' W 122°36'0 6.6
2015-Jan-23 23:33N 47°35' W 122°36'3 2.6
2015-Jan-23 22:34N 47°33' W 122°38'0 0.0
2015-Jan-23 22:32N 47°33' W 122°38'0 0.0
2015-Jan-23 21:33N 47°33' W 122°38'0 0.0
2015-Jan-23 21:32N 47°33' W 122°38'0 0.0
2015-Jan-23 20:34N 47°33' W 122°38'9 8.6
2015-Jan-23 19:33N 47°36' W 122°26'5 4.7
2015-Jan-23 18:33N 47°40' W 122°23'0 0.3
2015-Jan-23 17:33N 47°40' W 122°23'0 0.0
2015-Jan-23 16:24N 47°40' W 122°23'0 0.0
2015-Jan-23 15:29N 47°40' W 122°23'0 0.0
2015-Jan-23 14:10N 47°40' W 122°23'0 0.0
2015-Jan-23 13:29N 47°40' W 122°23'0 0.0
2015-Jan-23 12:33N 47°40' W 122°23'0 0.0
2015-Jan-23 11:25N 47°40' W 122°23'0 0.0
2015-Jan-23 10:33N 47°40' W 122°23'0 0.0
2015-Jan-23 09:32N 47°40' W 122°23'0 0.0
2015-Jan-23 08:30N 47°40' W 122°23'0 0.0
2015-Jan-23 07:33N 47°40' W 122°23'0 0.0
2015-Jan-23 06:26N 47°40' W 122°23'0 0.0
2015-Jan-23 05:33N 47°40' W 122°23'0 0.2
2015-Jan-23 05:31N 47°40' W 122°23'0 0.0
2015-Jan-23 04:33N 47°40' W 122°23'0 0.2
2015-Jan-23 04:31N 47°40' W 122°23'0 0.0
2015-Jan-23 03:33N 47°40' W 122°23'0 0.0
2015-Jan-23 03:31N 47°40' W 122°23'0 0.0
2015-Jan-23 02:32N 47°40' W 122°23'0 0.1
2015-Jan-23 02:29N 47°40' W 122°23'0 0.0
2015-Jan-23 01:34N 47°40' W 122°23'0 1.4
2015-Jan-23 01:33N 47°40' W 122°23'0 0.0
2015-Jan-23 00:34N 47°40' W 122°23'0 0.0
2015-Jan-23 00:33N 47°40' W 122°23'0 0.0
2015-Jan-22 23:34N 47°40' W 122°23'0 0.0
2015-Jan-22 23:33N 47°40' W 122°23'0 0.0
2015-Jan-22 22:33N 47°40' W 122°23'0 0.0
2015-Jan-22 22:33N 47°40' W 122°23'0 0.0
2015-Jan-22 21:25N 47°40' W 122°23'0 0.0
2015-Jan-22 21:13N 47°40' W 122°23'0 0.0
2015-Jan-22 20:33N 47°40' W 122°23'0 0.0
2015-Jan-22 20:32N 47°40' W 122°23'0 0.0
2015-Jan-22 19:16N 47°40' W 122°23'0 0.1
2015-Jan-22 19:12N 47°40' W 122°23'0 0.0
2015-Jan-22 18:33N 47°40' W 122°23'0 0.0
2015-Jan-22 18:31N 47°40' W 122°23'0 0.0
2015-Jan-22 17:33N 47°40' W 122°23'0 0.1
2015-Jan-22 17:31N 47°40' W 122°23'0 0.0
2015-Jan-22 16:33N 47°40' W 122°23'0 0.1
2015-Jan-22 16:31N 47°40' W 122°23'0 0.0
2015-Jan-22 15:33N 47°40' W 122°23'0 0.0
2015-Jan-22 15:31N 47°40' W 122°23'0 0.0
2015-Jan-22 14:33N 47°40' W 122°23'0 0.0
2015-Jan-22 14:31N 47°40' W 122°23'0 0.0
2015-Jan-22 13:33N 47°40' W 122°23'0 0.3
2015-Jan-22 13:31N 47°40' W 122°23'0 0.0
2015-Jan-22 12:33N 47°40' W 122°23'0 0.0
2015-Jan-22 12:30N 47°40' W 122°23'0 0.0
2015-Jan-22 11:32N 47°40' W 122°23'0 0.0
2015-Jan-22 11:26N 47°40' W 122°23'0 0.0
2015-Jan-22 10:33N 47°40' W 122°23'0 0.1
2015-Jan-22 10:30N 47°40' W 122°23'0 0.0
2015-Jan-22 09:33N 47°40' W 122°23'0 0.1
2015-Jan-22 09:30N 47°40' W 122°23'0 0.0
2015-Jan-22 08:33N 47°40' W 122°23'0 0.1
2015-Jan-22 08:30N 47°40' W 122°23'0 0.0
2015-Jan-22 07:33N 47°40' W 122°23'0 0.0
2015-Jan-22 07:30N 47°40' W 122°23'0 0.0
2015-Jan-22 07:10N 47°40' W 122°23'0 0.0
2015-Jan-22 06:27N 47°40' W 122°23'0 0.0
2015-Jan-22 05:33N 47°40' W 122°23'0 0.0
2015-Jan-22 05:29N 47°40' W 122°23'0 0.0
2015-Jan-22 04:33N 47°40' W 122°23'0 0.0
2015-Jan-22 04:29N 47°40' W 122°23'0 0.0
2015-Jan-22 03:33N 47°40' W 122°23'0 0.6
2015-Jan-22 03:32N 47°40' W 122°23'0 0.0
2015-Jan-22 02:33N 47°40' W 122°23'0 0.3
2015-Jan-22 02:32N 47°40' W 122°23'0 0.0
2015-Jan-22 01:31N 47°40' W 122°23'0 0.0
2015-Jan-22 01:31N 47°40' W 122°23'0 0.0
2015-Jan-22 00:33N 47°40' W 122°23'0 0.1
2015-Jan-22 00:31N 47°40' W 122°23'0 0.0
2015-Jan-21 23:33N 47°40' W 122°23'0 0.0
2015-Jan-21 23:31N 47°40' W 122°23'0 0.0
2015-Jan-21 22:50N 47°40' W 122°23'0 0.2
2015-Jan-21 22:46N 47°40' W 122°23'0 0.0
2015-Jan-21 22:46N 47°40' W 122°23'0 0.0
2015-Jan-21 22:22N 47°40' W 122°23'0 0.2
2015-Jan-21 22:21N 47°40' W 122°23'0 0.0
2015-Jan-21 21:33N 47°40' W 122°23'0 0.1
2015-Jan-21 21:30N 47°40' W 122°23'0 0.0
2015-Jan-21 20:33N 47°40' W 122°23'0 0.0
2015-Jan-21 20:30N 47°40' W 122°23'0 0.0
2015-Jan-21 19:33N 47°40' W 122°23'0 0.0
2015-Jan-21 19:30N 47°40' W 122°23'0 0.0
2015-Jan-21 18:33N 47°40' W 122°23'0 0.1
2015-Jan-21 18:30N 47°40' W 122°23'0 0.0
2015-Jan-21 17:33N 47°40' W 122°23'0 0.0
2015-Jan-21 17:30N 47°40' W 122°23'0 0.0
2015-Jan-21 16:33N 47°40' W 122°23'0 0.0
2015-Jan-21 16:30N 47°40' W 122°23'0 0.0
2015-Jan-21 15:33N 47°40' W 122°23'0 0.1
2015-Jan-21 15:30N 47°40' W 122°23'0 0.0
2015-Jan-21 14:33N 47°40' W 122°23'0 0.1
2015-Jan-21 14:30N 47°40' W 122°23'0 0.0
2015-Jan-21 13:33N 47°40' W 122°23'0 0.0
2015-Jan-21 13:29N 47°40' W 122°23'0 0.0
2015-Jan-21 12:33N 47°40' W 122°23'0 0.1
2015-Jan-21 12:29N 47°40' W 122°23'0 0.0
2015-Jan-21 11:33N 47°40' W 122°23'0 0.0
2015-Jan-21 11:33N 47°40' W 122°23'0 0.0
2015-Jan-21 10:33N 47°40' W 122°23'0 0.0
2015-Jan-21 10:32N 47°40' W 122°23'0 0.0
2015-Jan-21 09:33N 47°40' W 122°23'0 0.0
2015-Jan-21 09:32N 47°40' W 122°23'0 0.0
2015-Jan-21 08:33N 47°40' W 122°23'0 0.0
2015-Jan-21 08:32N 47°40' W 122°23'0 0.0
2015-Jan-21 07:33N 47°40' W 122°23'0 0.0
2015-Jan-21 07:32N 47°40' W 122°23'0 0.0
2015-Jan-21 06:57N 47°40' W 122°23'0 0.0
2015-Jan-21 06:33N 47°40' W 122°23'0 0.0
2015-Jan-21 05:33N 47°40' W 122°23'0 0.3
2015-Jan-21 05:32N 47°40' W 122°23'0 0.0
2015-Jan-21 04:17N 47°40' W 122°23'  
Track history (hours):
 
Tides and Currents Weather Stations Pressure Air Temp Water Temp Dewpoint Dewpoint Depression Visibility Wind Speed Wind Dir Waves Ship Positions

Maritime Instructor

Owner: WASHINGTON, STATE OF, SEATTLE, WA. More information available from US FCC via Universal Licensing System and Coast Guard Vessel Documentation Center.

Last reported at 2015-Jan-31 03:46 UTC. Time now 2015-Jan-31 21:09 UTC.
Position N 47°40' W 122°23'.

Length 30 m; draft 2 m.

Type: Ship. MMSI: 303556000.

Date/timePositionNaut miles runAvg speedWind from/ knotsBaromVisibWave heightAir tempDewpointWater temp
2015-Jan-31 03:46N 47°40' W 122°23'0 0.0
2015-Jan-31 03:33N 47°40' W 122°23'0 0.0
2015-Jan-31 03:32N 47°40' W 122°23'1 0.6
2015-Jan-31 02:37N 47°40' W 122°23'0 5.9
2015-Jan-31 02:33N 47°40' W 122°24'5 5.3
2015-Jan-31 01:33N 47°35' W 122°26'612.2
2015-Jan-31 01:05N 47°30' W 122°30'712.4
2015-Jan-31 00:33N 47°23' W 122°32'3 3.2
2015-Jan-30 23:33N 47°21' W 122°29'1 0.7
2015-Jan-30 22:33N 47°21' W 122°29'1 1.2
2015-Jan-30 21:33N 47°20' W 122°28'10 9.6
2015-Jan-30 20:33N 47°30' W 122°24'312.4
2015-Jan-30 20:20N 47°32' W 122°25'810.7
2015-Jan-30 19:33N 47°41' W 122°25'0 6.6
2015-Jan-30 19:30N 47°40' W 122°24'2 1.6
2015-Jan-30 18:33N 47°40' W 122°23'0 0.0
2015-Jan-30 18:30N 47°40' W 122°23'  
2015-Jan-28 03:07N 47°40' W 122°23'0 0.1
2015-Jan-28 03:03N 47°40' W 122°23'0 0.0
2015-Jan-28 02:34N 47°40' W 122°23'0 0.0
2015-Jan-28 02:33N 47°40' W 122°23'5 4.8
2015-Jan-28 01:33N 47°44' W 122°24'011.2
2015-Jan-28 01:32N 47°44' W 122°24'1010.1
2015-Jan-28 00:33N 47°54' W 122°20'7 7.3
2015-Jan-27 23:33N 47°60' W 122°13'0 0.0
2015-Jan-27 22:33N 47°60' W 122°13'0 0.0
2015-Jan-27 21:33N 47°60' W 122°13'2 1.7
2015-Jan-27 20:33N 47°60' W 122°16'6 5.8
2015-Jan-27 19:32N 48°02' W 122°24'2 8.0
2015-Jan-27 19:16N 48°01' W 122°22'810.6
2015-Jan-27 18:33N 47°53' W 122°22'311.5
2015-Jan-27 18:16N 47°50' W 122°24'912.3
2015-Jan-27 17:33N 47°42' W 122°25'011.0
2015-Jan-27 17:31N 47°41' W 122°25'2 2.4
2015-Jan-27 16:33N 47°40' W 122°23'0 0.2
2015-Jan-27 16:31N 47°40' W 122°23'  
2015-Jan-24 02:29N 47°40' W 122°23'0 0.0
2015-Jan-24 02:29N 47°40' W 122°23'3 3.2
2015-Jan-24 01:33N 47°42' W 122°25'1 7.3
2015-Jan-24 01:29N 47°43' W 122°25'6 6.2
2015-Jan-24 00:33N 47°43' W 122°34'0 6.3
2015-Jan-24 00:33N 47°43' W 122°34'8 8.2
2015-Jan-23 23:34N 47°35' W 122°36'0 6.6
2015-Jan-23 23:33N 47°35' W 122°36'3 2.6
2015-Jan-23 22:34N 47°33' W 122°38'0 0.0
2015-Jan-23 22:32N 47°33' W 122°38'0 0.0
2015-Jan-23 21:33N 47°33' W 122°38'0 0.0
2015-Jan-23 21:32N 47°33' W 122°38'0 0.0
2015-Jan-23 20:34N 47°33' W 122°38'9 8.6
2015-Jan-23 19:33N 47°36' W 122°26'5 4.7
2015-Jan-23 18:33N 47°40' W 122°23'0 0.3
2015-Jan-23 17:33N 47°40' W 122°23'0 0.0
2015-Jan-23 16:24N 47°40' W 122°23'0 0.0
2015-Jan-23 15:29N 47°40' W 122°23'0 0.0
2015-Jan-23 14:10N 47°40' W 122°23'0 0.0
2015-Jan-23 13:29N 47°40' W 122°23'0 0.0
2015-Jan-23 12:33N 47°40' W 122°23'0 0.0
2015-Jan-23 11:25N 47°40' W 122°23'0 0.0
2015-Jan-23 10:33N 47°40' W 122°23'0 0.0
2015-Jan-23 09:32N 47°40' W 122°23'0 0.0
2015-Jan-23 08:30N 47°40' W 122°23'0 0.0
2015-Jan-23 07:33N 47°40' W 122°23'0 0.0
2015-Jan-23 06:26N 47°40' W 122°23'0 0.0
2015-Jan-23 05:33N 47°40' W 122°23'0 0.2
2015-Jan-23 05:31N 47°40' W 122°23'0 0.0
2015-Jan-23 04:33N 47°40' W 122°23'0 0.2
2015-Jan-23 04:31N 47°40' W 122°23'0 0.0
2015-Jan-23 03:33N 47°40' W 122°23'0 0.0
2015-Jan-23 03:31N 47°40' W 122°23'0 0.0
2015-Jan-23 02:32N 47°40' W 122°23'0 0.1
2015-Jan-23 02:29N 47°40' W 122°23'0 0.0
2015-Jan-23 01:34N 47°40' W 122°23'0 1.4
2015-Jan-23 01:33N 47°40' W 122°23'0 0.0
2015-Jan-23 00:34N 47°40' W 122°23'0 0.0
2015-Jan-23 00:33N 47°40' W 122°23'0 0.0
2015-Jan-22 23:34N 47°40' W 122°23'0 0.0
2015-Jan-22 23:33N 47°40' W 122°23'0 0.0
2015-Jan-22 22:33N 47°40' W 122°23'0 0.0
2015-Jan-22 22:33N 47°40' W 122°23'0 0.0
2015-Jan-22 21:25N 47°40' W 122°23'0 0.0
2015-Jan-22 21:13N 47°40' W 122°23'0 0.0
2015-Jan-22 20:33N 47°40' W 122°23'0 0.0
2015-Jan-22 20:32N 47°40' W 122°23'0 0.0
2015-Jan-22 19:16N 47°40' W 122°23'0 0.1
2015-Jan-22 19:12N 47°40' W 122°23'0 0.0
2015-Jan-22 18:33N 47°40' W 122°23'0 0.0
2015-Jan-22 18:31N 47°40' W 122°23'0 0.0
2015-Jan-22 17:33N 47°40' W 122°23'0 0.1
2015-Jan-22 17:31N 47°40' W 122°23'0 0.0
2015-Jan-22 16:33N 47°40' W 122°23'0 0.1
2015-Jan-22 16:31N 47°40' W 122°23'0 0.0
2015-Jan-22 15:33N 47°40' W 122°23'0 0.0
2015-Jan-22 15:31N 47°40' W 122°23'0 0.0
2015-Jan-22 14:33N 47°40' W 122°23'0 0.0
2015-Jan-22 14:31N 47°40' W 122°23'0 0.0
2015-Jan-22 13:33N 47°40' W 122°23'0 0.3
2015-Jan-22 13:31N 47°40' W 122°23'0 0.0
2015-Jan-22 12:33N 47°40' W 122°23'0 0.0
2015-Jan-22 12:30N 47°40' W 122°23'0 0.0
2015-Jan-22 11:32N 47°40' W 122°23'0 0.0
2015-Jan-22 11:26N 47°40' W 122°23'0 0.0
2015-Jan-22 10:33N 47°40' W 122°23'0 0.1
2015-Jan-22 10:30N 47°40' W 122°23'0 0.0
2015-Jan-22 09:33N 47°40' W 122°23'0 0.1
2015-Jan-22 09:30N 47°40' W 122°23'0 0.0
2015-Jan-22 08:33N 47°40' W 122°23'0 0.1
2015-Jan-22 08:30N 47°40' W 122°23'0 0.0
2015-Jan-22 07:33N 47°40' W 122°23'0 0.0
2015-Jan-22 07:30N 47°40' W 122°23'0 0.0
2015-Jan-22 07:10N 47°40' W 122°23'0 0.0
2015-Jan-22 06:27N 47°40' W 122°23'0 0.0
2015-Jan-22 05:33N 47°40' W 122°23'0 0.0
2015-Jan-22 05:29N 47°40' W 122°23'0 0.0
2015-Jan-22 04:33N 47°40' W 122°23'0 0.0
2015-Jan-22 04:29N 47°40' W 122°23'0 0.0
2015-Jan-22 03:33N 47°40' W 122°23'0 0.6
2015-Jan-22 03:32N 47°40' W 122°23'0 0.0
2015-Jan-22 02:33N 47°40' W 122°23'0 0.3
2015-Jan-22 02:32N 47°40' W 122°23'0 0.0
2015-Jan-22 01:31N 47°40' W 122°23'0 0.0
2015-Jan-22 01:31N 47°40' W 122°23'0 0.0
2015-Jan-22 00:33N 47°40' W 122°23'0 0.1
2015-Jan-22 00:31N 47°40' W 122°23'0 0.0
2015-Jan-21 23:33N 47°40' W 122°23'0 0.0
2015-Jan-21 23:31N 47°40' W 122°23'0 0.0
2015-Jan-21 22:50N 47°40' W 122°23'0 0.2
2015-Jan-21 22:46N 47°40' W 122°23'0 0.0
2015-Jan-21 22:46N 47°40' W 122°23'0 0.0
2015-Jan-21 22:22N 47°40' W 122°23'0 0.2
2015-Jan-21 22:21N 47°40' W 122°23'0 0.0
2015-Jan-21 21:33N 47°40' W 122°23'0 0.1
2015-Jan-21 21:30N 47°40' W 122°23'0 0.0
2015-Jan-21 20:33N 47°40' W 122°23'0 0.0
2015-Jan-21 20:30N 47°40' W 122°23'0 0.0
2015-Jan-21 19:33N 47°40' W 122°23'0 0.0
2015-Jan-21 19:30N 47°40' W 122°23'0 0.0
2015-Jan-21 18:33N 47°40' W 122°23'0 0.1
2015-Jan-21 18:30N 47°40' W 122°23'0 0.0
2015-Jan-21 17:33N 47°40' W 122°23'0 0.0
2015-Jan-21 17:30N 47°40' W 122°23'0 0.0
2015-Jan-21 16:33N 47°40' W 122°23'0 0.0
2015-Jan-21 16:30N 47°40' W 122°23'0 0.0
2015-Jan-21 15:33N 47°40' W 122°23'0 0.1
2015-Jan-21 15:30N 47°40' W 122°23'0 0.0
2015-Jan-21 14:33N 47°40' W 122°23'0 0.1
2015-Jan-21 14:30N 47°40' W 122°23'0 0.0
2015-Jan-21 13:33N 47°40' W 122°23'0 0.0
2015-Jan-21 13:29N 47°40' W 122°23'0 0.0
2015-Jan-21 12:33N 47°40' W 122°23'0 0.1
2015-Jan-21 12:29N 47°40' W 122°23'0 0.0
2015-Jan-21 11:33N 47°40' W 122°23'0 0.0
2015-Jan-21 11:33N 47°40' W 122°23'0 0.0
2015-Jan-21 10:33N 47°40' W 122°23'0 0.0
2015-Jan-21 10:32N 47°40' W 122°23'0 0.0
2015-Jan-21 09:33N 47°40' W 122°23'0 0.0
2015-Jan-21 09:32N 47°40' W 122°23'0 0.0
2015-Jan-21 08:33N 47°40' W 122°23'0 0.0
2015-Jan-21 08:32N 47°40' W 122°23'0 0.0
2015-Jan-21 07:33N 47°40' W 122°23'0 0.0
2015-Jan-21 07:32N 47°40' W 122°23'0 0.0
2015-Jan-21 06:57N 47°40' W 122°23'0 0.0
2015-Jan-21 06:33N 47°40' W 122°23'0 0.0
2015-Jan-21 05:33N 47°40' W 122°23'0 0.3
2015-Jan-21 05:32N 47°40' W 122°23'0 0.0
2015-Jan-21 04:17N 47°40' W 122°23'  

Dump ship's entire track history